createdAt,value
2022-12-23T00:11:17.772Z,99600.30
2022-12-23T04:43:57.551Z,99753.44
2022-12-23T05:58:22.099Z,99774.73
2022-12-23T06:08:59.194Z,99797.34
2022-12-23T06:11:50.703Z,99797.89
2022-12-23T06:16:01.145Z,99804.82
2022-12-23T06:19:36.591Z,99812.97
2022-12-23T06:24:31.098Z,99820.65
2022-12-23T06:31:25.855Z,99825.61
2022-12-23T06:35:36.183Z,99822.21
2022-12-23T06:41:55.023Z,99818.19
2022-12-23T06:46:38.776Z,99830.86
2022-12-23T06:52:23.483Z,99829.91
2022-12-23T06:56:52.507Z,99831.19
2022-12-23T07:01:11.882Z,99835.92
2022-12-23T07:09:11.917Z,99834.11
2022-12-23T07:13:12.443Z,99836.31
2022-12-23T07:17:21.807Z,99843.56
2022-12-23T07:21:55.332Z,99850.23
2022-12-23T07:28:46.785Z,99850.47
2022-12-23T07:32:10.717Z,99852.55
2022-12-23T07:37:03.045Z,99872.30
2022-12-23T07:40:19.768Z,99874.96
2022-12-23T07:44:08.991Z,99884.17
2022-12-23T07:49:11.420Z,99897.73
2022-12-23T07:54:53.330Z,99912.83
2022-12-23T07:58:42.452Z,99919.59
2022-12-23T08:03:35.196Z,99921.95
2022-12-23T08:09:24.096Z,99913.59
2022-12-23T08:26:33.578Z,99892.06
2022-12-23T08:29:39.559Z,99888.14
2022-12-23T08:34:51.757Z,99890.61
2022-12-23T08:42:49.336Z,99919.75
2022-12-23T08:49:55.142Z,99906.94
2022-12-23T08:59:42.735Z,99906.89
2022-12-23T09:02:34.439Z,99897.64
2022-12-23T09:05:20.074Z,99899.89
2022-12-23T09:09:17.493Z,99909.44
2022-12-23T09:13:49.213Z,99905.86
2022-12-23T09:18:33.562Z,99909.44
2022-12-23T09:23:04.623Z,99911.16
2022-12-23T09:26:50.968Z,99900.67
2022-12-23T09:31:20.413Z,99899.39
2022-12-23T09:36:43.550Z,99890.12
2022-12-23T09:39:48.436Z,99887.73
2022-12-23T09:49:53.084Z,99891.05
2022-12-23T10:06:47.437Z,99868.40
2022-12-23T10:12:42.717Z,99858.00
2022-12-23T10:17:10.517Z,99856.95
2022-12-23T10:21:18.587Z,99861.19
2022-12-23T10:24:23.740Z,99859.67
2022-12-23T10:32:19.752Z,99864.11
2022-12-23T10:35:26.597Z,99863.45
2022-12-23T10:40:08.042Z,99849.95
2022-12-23T10:45:24.687Z,99831.24
2022-12-23T10:51:24.935Z,99822.52
2022-12-23T10:57:15.560Z,99793.48
2022-12-23T11:01:27.060Z,99782.86
2022-12-23T11:14:51.311Z,99775.69
2022-12-23T11:27:35.038Z,99765.11
2022-12-23T13:10:59.885Z,99604.01
2022-12-23T13:21:58.621Z,99581.02
2022-12-23T14:17:47.948Z,99453.28
2022-12-23T17:33:19.162Z,99296.45
2022-12-23T17:52:15.979Z,99318.02
2022-12-23T19:32:17.017Z,99453.27
2022-12-23T20:22:15.475Z,99520.72
2022-12-23T21:12:18.315Z,99597.90
